Time;durP1;ratioP1;P1;durP2;ratioP2;P2;SDS_P1;SDS_P2;PMS_P1;PMS_P2;Temp;Humidity;BMP_temperature;BMP_pressure;BME280_temperature;BME280_humidity;BME280_pressure;Samples;Min_cycle;Max_cycle;Signal;HPM_P1;HPM_P2
2023/08/25 00:00:39;;;;;;;;;;;19.90;99.90;;;;;;5043033;28;20040;-68
2023/08/25 00:03:06;;;;;;;31.90;21.20;;;19.90;99.90;;;;;;5036131;28;19921;-67
2023/08/25 00:05:38;;;;;;;32.95;21.38;;;19.90;99.90;;;;;;5033519;28;20502;-68
2023/08/25 00:08:05;;;;;;;32.15;21.42;;;20.00;99.90;;;;;;5029106;28;20104;-67
2023/08/25 00:10:32;;;;;;;32.35;20.98;;;20.00;99.90;;;;;;5051168;28;20089;-70
2023/08/25 00:12:58;;;;;;;28.15;20.60;;;20.00;99.90;;;;;;5024082;28;20443;-70
2023/08/25 00:15:23;;;;;;;32.47;20.63;;;20.00;99.90;;;;;;5036592;28;20091;-70
2023/08/25 00:17:55;;;;;;;29.73;21.05;;;20.00;99.90;;;;;;5036440;28;20040;-70
2023/08/25 00:20:21;;;;;;;33.53;21.67;;;20.00;99.90;;;;;;5032801;28;20503;-70
2023/08/25 00:22:47;;;;;;;32.08;21.20;;;20.00;99.90;;;;;;5024481;28;20044;-70
2023/08/25 00:25:13;;;;;;;32.03;21.00;;;20.10;99.90;;;;;;5025535;28;20106;-70
2023/08/25 00:27:38;;;;;;;34.05;21.50;;;20.00;99.90;;;;;;5022569;28;20396;-70
2023/08/25 00:30:06;;;;;;;31.67;22.25;;;20.10;99.90;;;;;;5038063;28;20131;-70
2023/08/25 00:32:32;;;;;;;32.05;21.33;;;20.00;99.90;;;;;;5037507;28;20447;-71
2023/08/25 00:34:58;;;;;;;38.08;22.45;;;20.10;99.90;;;;;;5033522;28;20079;-70
2023/08/25 00:37:24;;;;;;;33.78;21.73;;;20.00;99.90;;;;;;5023433;28;20044;-71
2023/08/25 00:39:49;;;;;;;34.83;22.40;;;20.10;99.90;;;;;;5044509;28;20087;-71
2023/08/25 00:42:15;;;;;;;33.03;22.52;;;20.10;99.90;;;;;;5051141;28;20047;-70
2023/08/25 00:44:40;;;;;;;32.33;20.27;;;20.00;99.90;;;;;;5050381;28;20036;-70
2023/08/25 00:47:06;;;;;;;;;;;20.00;99.90;;;;;;5032060;28;20186;-70
2023/08/25 00:49:33;;;;;;;31.58;19.45;;;20.00;99.90;;;;;;5049149;28;19978;-70
2023/08/25 00:52:01;;;;;;;33.58;20.73;;;20.00;99.90;;;;;;5045056;28;20128;-70
2023/08/25 00:54:34;;;;;;;34.58;21.50;;;20.00;99.90;;;;;;5055948;28;20468;-70
2023/08/25 00:57:02;;;;;;;33.17;21.05;;;19.90;99.90;;;;;;5030460;28;20040;-71
2023/08/25 00:59:29;;;;;;;35.38;21.40;;;20.00;99.90;;;;;;5054643;28;20171;-70
2023/08/25 01:01:58;;;;;;;29.25;19.67;;;19.90;99.90;;;;;;5033949;28;20217;-71
2023/08/25 01:04:26;;;;;;;32.47;19.35;;;19.90;99.90;;;;;;5033393;28;20060;-71
2023/08/25 01:06:51;;;;;;;30.38;20.38;;;19.90;99.90;;;;;;5033462;28;20049;-70
2023/08/25 01:09:18;;;;;;;30.58;18.90;;;19.90;99.90;;;;;;5053508;28;20095;-70
2023/08/25 01:11:53;;;;;;;33.65;19.50;;;19.80;99.90;;;;;;5048868;28;20097;-71
2023/08/25 01:14:44;;;;;;;35.20;21.00;;;19.80;99.90;;;;;;5020889;28;20044;-71
2023/08/25 01:17:21;;;;;;;34.67;19.60;;;19.80;99.90;;;;;;5030850;28;20392;-70
2023/08/25 01:20:01;;;;;;;31.02;20.15;;;19.80;99.90;;;;;;5049819;28;20115;-72
2023/08/25 01:22:33;;;;;;;32.60;18.80;;;19.70;99.90;;;;;;5058001;28;20068;-71
2023/08/25 01:25:19;;;;;;;31.67;18.83;;;19.70;99.90;;;;;;5056591;28;20613;-71
2023/08/25 01:27:45;;;;;;;31.05;18.60;;;19.70;99.90;;;;;;5035699;28;20044;-71
2023/08/25 01:30:13;;;;;;;31.33;19.13;;;19.70;99.90;;;;;;5019523;28;20051;-72
2023/08/25 01:32:39;;;;;;;31.90;20.33;;;19.70;99.90;;;;;;5039111;28;20045;-71
2023/08/25 01:35:05;;;;;;;34.45;19.83;;;19.70;99.90;;;;;;5053960;28;20227;-71
2023/08/25 01:37:36;;;;;;;32.17;18.58;;;19.70;99.90;;;;;;5018907;28;20063;-70
2023/08/25 01:40:12;;;;;;;28.02;18.92;;;19.60;99.90;;;;;;5033674;28;20051;-70
2023/08/25 01:42:43;;;;;;;35.77;19.50;;;19.70;99.90;;;;;;5064480;28;20485;-71
2023/08/25 01:45:09;;;;;;;33.10;19.40;;;19.60;99.90;;;;;;5013948;28;20033;-71
2023/08/25 01:47:38;;;;;;;34.90;20.30;;;19.60;99.90;;;;;;5055454;28;20108;-71
2023/08/25 01:50:07;;;;;;;32.40;19.15;;;19.60;99.90;;;;;;5041338;28;20495;-71
2023/08/25 01:52:33;;;;;;;32.22;19.27;;;19.50;99.90;;;;;;5041362;28;20108;-71
2023/08/25 01:54:59;;;;;;;;;;;19.50;99.90;;;;;;5038738;28;20420;-70
2023/08/25 01:57:25;;;;;;;30.83;18.90;;;19.50;99.90;;;;;;5049752;28;19917;-71
2023/08/25 01:59:51;;;;;;;33.08;20.17;;;19.50;99.90;;;;;;5038403;28;20044;-71
2023/08/25 02:02:19;;;;;;;30.58;18.42;;;19.50;99.90;;;;;;5041328;28;20053;-71
2023/08/25 02:04:44;;;;;;;34.22;20.17;;;19.50;99.90;;;;;;5035995;28;20040;-71
2023/08/25 02:07:10;;;;;;;30.30;18.80;;;19.40;99.90;;;;;;5034956;28;20105;-71
2023/08/25 02:09:36;;;;;;;32.80;19.55;;;19.40;99.90;;;;;;5056497;28;20098;-71
2023/08/25 02:12:01;;;;;;;31.58;19.75;;;19.40;99.90;;;;;;5036887;28;20045;-71
2023/08/25 02:14:27;;;;;;;30.83;19.02;;;19.40;99.90;;;;;;5024488;28;20041;-71
2023/08/25 02:16:53;;;;;;;33.83;20.90;;;19.40;99.90;;;;;;5041182;28;20403;-71
2023/08/25 02:19:19;;;;;;;;;;;19.40;99.90;;;;;;5041952;28;20048;-71
2023/08/25 02:21:48;;;;;;;33.67;20.67;;;19.40;99.90;;;;;;5051387;28;20337;-70
2023/08/25 02:24:13;;;;;;;34.35;18.88;;;19.40;99.90;;;;;;5035188;28;20048;-70
2023/08/25 02:26:39;;;;;;;31.58;20.45;;;19.40;99.90;;;;;;5031737;28;20036;-70
2023/08/25 02:29:06;;;;;;;32.97;20.73;;;19.40;99.90;;;;;;5042931;28;20120;-70
2023/08/25 02:31:32;;;;;;;31.77;20.63;;;19.40;99.90;;;;;;5058775;28;20447;-70
2023/08/25 02:33:57;;;;;;;38.58;20.25;;;19.40;99.90;;;;;;5065165;28;20234;-70
2023/08/25 02:36:26;;;;;;;32.38;20.35;;;19.40;99.90;;;;;;5036410;28;20542;-70
2023/08/25 02:38:51;;;;;;;32.55;19.80;;;19.40;99.90;;;;;;5038734;28;20125;-70
2023/08/25 02:41:17;;;;;;;31.38;19.95;;;19.40;99.90;;;;;;5034268;28;20160;-70
2023/08/25 02:43:42;;;;;;;34.08;20.73;;;19.40;99.90;;;;;;5058434;28;20048;-70
2023/08/25 02:46:11;;;;;;;35.15;22.23;;;19.40;99.90;;;;;;5032137;28;20108;-70
2023/08/25 02:48:37;;;;;;;38.92;23.73;;;19.40;99.90;;;;;;5060763;28;20553;-69
2023/08/25 02:51:05;;;;;;;32.63;20.70;;;19.40;99.90;;;;;;5051976;28;20140;-70
2023/08/25 02:53:30;;;;;;;34.03;21.58;;;19.40;99.90;;;;;;5039662;28;20040;-70
2023/08/25 02:55:56;;;;;;;35.22;21.80;;;19.40;99.90;;;;;;5058692;28;20044;-70
2023/08/25 02:58:22;;;;;;;37.42;23.02;;;19.40;99.90;;;;;;5057412;28;20083;-70
2023/08/25 03:00:47;;;;;;;34.40;22.17;;;19.40;99.90;;;;;;5055106;28;20037;-70
2023/08/25 03:03:13;;;;;;;34.63;22.10;;;19.40;99.90;;;;;;5055907;28;20064;-71
2023/08/25 03:05:39;;;;;;;36.92;21.60;;;19.40;99.90;;;;;;5020268;28;20351;-70
2023/08/25 03:08:12;;;;;;;38.72;22.35;;;19.40;99.90;;;;;;5055235;28;20120;-70
2023/08/25 03:10:41;;;;;;;37.03;23.83;;;19.40;99.90;;;;;;5064359;28;20067;-70
2023/08/25 03:13:07;;;;;;;36.80;23.30;;;19.30;99.90;;;;;;5044626;28;20037;-70
2023/08/25 03:15:34;;;;;;;36.47;22.85;;;19.40;99.90;;;;;;5039536;28;20055;-70
2023/08/25 03:18:00;;;;;;;39.42;23.65;;;19.30;99.90;;;;;;5050519;28;20114;-71
2023/08/25 03:20:26;;;;;;;37.30;22.80;;;19.30;99.90;;;;;;5050716;28;20044;-70
2023/08/25 03:22:53;;;;;;;40.90;23.15;;;19.30;99.90;;;;;;5058342;28;20403;-71
2023/08/25 03:25:19;;;;;;;36.70;22.63;;;19.40;99.90;;;;;;5058218;28;20079;-70
2023/08/25 03:27:45;;;;;;;39.92;22.88;;;19.40;99.90;;;;;;5054747;28;20064;-71
2023/08/25 03:30:11;;;;;;;41.35;22.95;;;19.40;99.90;;;;;;5043529;28;20041;-71
2023/08/25 03:32:37;;;;;;;35.30;22.63;;;19.40;99.90;;;;;;5027043;28;20055;-70
2023/08/25 03:35:03;;;;;;;39.28;22.55;;;19.30;99.90;;;;;;5039574;28;20041;-70
2023/08/25 03:37:32;;;;;;;38.47;22.60;;;19.40;99.90;;;;;;5038080;28;20048;-70
2023/08/25 03:39:57;;;;;;;35.40;22.05;;;19.40;99.90;;;;;;5045261;28;20041;-70
2023/08/25 03:42:23;;;;;;;38.65;21.85;;;19.40;99.90;;;;;;5052549;28;20041;-68
2023/08/25 03:44:49;;;;;;;37.45;22.00;;;19.40;99.90;;;;;;5048205;28;20498;-66
2023/08/25 03:47:14;;;;;;;38.47;22.75;;;19.40;99.90;;;;;;5054283;28;20049;-67
2023/08/25 03:49:40;;;;;;;37.85;22.60;;;19.40;99.90;;;;;;5060599;28;20047;-67
2023/08/25 03:52:06;;;;;;;38.60;23.10;;;19.40;99.90;;;;;;5037127;28;20138;-67
2023/08/25 03:54:32;;;;;;;43.22;23.80;;;19.30;99.90;;;;;;5052457;28;20047;-67
2023/08/25 03:56:58;;;;;;;39.00;22.98;;;19.30;99.90;;;;;;5053687;28;20087;-67
2023/08/25 03:59:24;;;;;;;38.88;23.42;;;19.40;99.90;;;;;;5027148;28;20049;-67
2023/08/25 04:01:50;;;;;;;41.05;22.13;;;19.40;99.90;;;;;;5036555;28;20064;-67
2023/08/25 04:04:15;;;;;;;42.47;24.08;;;19.40;99.90;;;;;;5050600;28;20095;-67
2023/08/25 04:06:41;;;;;;;41.00;23.10;;;19.40;99.90;;;;;;5027949;28;20101;-66
2023/08/25 04:09:07;;;;;;;38.55;22.63;;;19.40;99.90;;;;;;5059133;28;20036;-68
2023/08/25 04:11:33;;;;;;;41.78;23.23;;;19.40;99.90;;;;;;5061212;28;20118;-67
2023/08/25 04:13:59;;;;;;;41.17;23.23;;;19.40;99.90;;;;;;5051098;28;20032;-67
2023/08/25 04:16:24;;;;;;;45.00;23.75;;;19.40;99.90;;;;;;5053267;28;20037;-67
2023/08/25 04:18:50;;;;;;;40.75;23.88;;;19.40;99.90;;;;;;5046146;28;20040;-67
2023/08/25 04:21:15;;;;;;;38.30;23.10;;;19.40;99.90;;;;;;5055361;28;20048;-67
2023/08/25 04:23:46;;;;;;;42.70;22.15;;;19.40;99.90;;;;;;5034980;28;20482;-67
2023/08/25 04:26:14;;;;;;;44.70;24.55;;;19.30;99.90;;;;;;5019332;28;20123;-67
2023/08/25 04:28:40;;;;;;;41.10;23.17;;;19.40;99.90;;;;;;5045403;28;20383;-67
2023/08/25 04:31:06;;;;;;;41.60;24.77;;;19.40;99.90;;;;;;5059233;28;20048;-67
2023/08/25 04:33:32;;;;;;;48.20;25.10;;;19.40;99.90;;;;;;5051505;28;20370;-67
2023/08/25 04:35:57;;;;;;;45.28;25.23;;;19.40;99.90;;;;;;5055451;28;20493;-67
2023/08/25 04:38:23;;;;;;;45.83;25.80;;;19.40;99.90;;;;;;5056780;28;20052;-67
2023/08/25 04:40:49;;;;;;;41.38;24.35;;;19.40;99.90;;;;;;5046502;28;20052;-67
2023/08/25 04:43:14;;;;;;;45.97;24.38;;;19.40;99.90;;;;;;5034586;28;20057;-67
2023/08/25 04:45:40;;;;;;;43.03;24.58;;;19.40;99.90;;;;;;5033894;28;20684;-67
2023/08/25 04:48:06;;;;;;;46.15;25.85;;;19.40;99.90;;;;;;5053530;28;20498;-67
2023/08/25 04:50:31;;;;;;;49.88;25.83;;;19.40;99.90;;;;;;5050143;28;20040;-67
2023/08/25 04:52:57;;;;;;;47.50;25.10;;;19.40;99.90;;;;;;5040559;28;20037;-67
2023/08/25 04:55:23;;;;;;;45.78;24.52;;;19.40;99.90;;;;;;5054512;28;20039;-67
2023/08/25 04:57:48;;;;;;;51.05;26.33;;;19.40;99.90;;;;;;5032181;28;20095;-67
2023/08/25 05:00:14;;;;;;;49.15;25.75;;;19.40;99.90;;;;;;5024588;28;20048;-67
2023/08/25 05:02:40;;;;;;;48.60;26.63;;;19.40;99.90;;;;;;5035879;28;20056;-67
2023/08/25 05:05:07;;;;;;;45.90;25.25;;;19.40;99.90;;;;;;5048423;28;20053;-66
2023/08/25 05:07:33;;;;;;;46.17;26.05;;;19.40;99.90;;;;;;5050637;28;20055;-66
2023/08/25 05:09:58;;;;;;;53.53;27.40;;;19.40;99.90;;;;;;5053320;28;20382;-66
2023/08/25 05:12:24;;;;;;;48.08;25.35;;;19.50;99.90;;;;;;5058328;22;20036;-70
2023/08/25 05:14:50;;;;;;;48.97;26.38;;;19.40;99.90;;;;;;5071871;28;20119;-70
2023/08/25 05:17:15;;;;;;;51.05;27.27;;;19.50;99.90;;;;;;5060741;28;20182;-72
2023/08/25 05:19:41;;;;;;;50.60;26.10;;;19.50;99.90;;;;;;5056863;28;20039;-72
2023/08/25 05:22:12;;;;;;;45.65;25.25;;;19.40;99.90;;;;;;5053125;28;20117;-71
2023/08/25 05:24:39;;;;;;;54.80;27.88;;;19.50;99.90;;;;;;5053016;28;20132;-72
2023/08/25 05:27:05;;;;;;;48.70;26.52;;;19.50;99.90;;;;;;5067669;28;20040;-72
2023/08/25 05:29:30;;;;;;;52.72;25.95;;;19.50;99.90;;;;;;5073696;28;20041;-72
2023/08/25 05:31:56;;;;;;;49.03;27.75;;;19.50;99.90;;;;;;5065999;28;20414;-71
2023/08/25 05:34:22;;;;;;;49.83;26.92;;;19.50;99.90;;;;;;5055470;28;20482;-71
2023/08/25 05:36:47;;;;;;;50.17;26.17;;;19.50;99.90;;;;;;5070975;28;20171;-71
2023/08/25 05:39:13;;;;;;;47.33;27.80;;;19.50;99.90;;;;;;5043571;28;20514;-71
2023/08/25 05:41:39;;;;;;;49.63;26.02;;;19.50;99.90;;;;;;5031115;28;20049;-72
2023/08/25 05:44:05;;;;;;;50.63;28.05;;;19.50;99.90;;;;;;5051685;28;20037;-72
2023/08/25 05:46:31;;;;;;;58.22;30.15;;;19.50;99.90;;;;;;5032906;28;20052;-72
2023/08/25 05:48:57;;;;;;;;;;;19.50;99.90;;;;;;5049359;28;20044;-74
2023/08/25 05:51:26;;;;;;;46.00;24.70;;;19.50;99.90;;;;;;5052485;28;20073;-72
2023/08/25 05:53:52;;;;;;;56.58;28.27;;;19.50;99.90;;;;;;5062665;28;20032;-76
2023/08/25 05:56:18;;;;;;;51.42;28.83;;;19.60;99.90;;;;;;5048578;28;20049;-71
2023/08/25 05:58:44;;;;;;;56.83;28.42;;;19.60;99.90;;;;;;5048801;28;20051;-72
2023/08/25 06:01:12;;;;;;;61.80;30.60;;;19.60;99.90;;;;;;5074219;28;20028;-71
2023/08/25 06:03:39;;;;;;;58.47;30.27;;;19.60;99.90;;;;;;5054517;28;20052;-71
2023/08/25 06:06:04;;;;;;;52.53;29.10;;;19.60;99.90;;;;;;5070076;28;20117;-71
2023/08/25 06:08:30;;;;;;;60.85;31.42;;;19.60;99.90;;;;;;5058963;28;20044;-71
2023/08/25 06:10:56;;;;;;;;;;;19.70;99.90;;;;;;5053835;28;20094;-71
2023/08/25 06:13:22;;;;;;;61.53;30.63;;;19.70;99.90;;;;;;5040561;28;20365;-71
2023/08/25 06:15:51;;;;;;;60.72;30.88;;;19.70;99.90;;;;;;5066346;28;20123;-71
2023/08/25 06:18:17;;;;;;;60.03;31.38;;;19.80;99.90;;;;;;5060775;28;20113;-71
2023/08/25 06:20:44;;;;;;;60.00;30.10;;;19.80;99.90;;;;;;5067145;28;20048;-73
2023/08/25 06:23:11;;;;;;;;;;;19.80;99.90;;;;;;5044155;28;20104;-74
2023/08/25 06:25:37;;;;;;;56.88;27.88;;;19.80;99.90;;;;;;5042019;28;19932;-71
2023/08/25 06:28:03;;;;;;;60.45;29.60;;;19.80;99.90;;;;;;5047254;28;20036;-77
2023/08/25 06:30:35;;;;;;;53.65;27.55;;;19.70;99.90;;;;;;5045406;28;20080;-78
2023/08/25 06:33:04;;;;;;;49.28;26.50;;;19.80;99.90;;;;;;5044490;28;20290;-71
2023/08/25 06:35:30;;;;;;;47.40;25.75;;;19.80;99.90;;;;;;5039778;28;20215;-72
2023/08/25 06:37:55;;;;;;;48.90;26.02;;;19.80;99.90;;;;;;5046363;28;20091;-71
2023/08/25 06:40:21;;;;;;;49.90;26.95;;;19.80;99.90;;;;;;5031251;28;20072;-71
2023/08/25 06:42:47;;;;;;;51.17;28.75;;;19.90;99.90;;;;;;5039968;28;20048;-71
2023/08/25 06:45:12;;;;;;;47.00;25.35;;;19.90;99.90;;;;;;5045612;28;20192;-75
2023/08/25 06:47:38;;;;;;;47.05;24.90;;;19.90;99.90;;;;;;5049785;28;20036;-76
2023/08/25 06:50:08;;;;;;;46.80;26.13;;;19.90;99.90;;;;;;5055328;28;20092;-74
2023/08/25 06:52:36;;;;;;;49.47;25.92;;;19.90;99.90;;;;;;5043707;28;20040;-75
2023/08/25 06:55:02;;;;;;;46.10;24.90;;;19.90;99.90;;;;;;5046147;28;20041;-75
2023/08/25 06:57:28;;;;;;;44.58;24.55;;;19.90;99.90;;;;;;5061523;28;20109;-74
2023/08/25 06:59:54;;;;;;;42.58;22.52;;;20.00;99.90;;;;;;5055009;28;20143;-76
2023/08/25 07:02:19;;;;;;;40.63;22.13;;;20.00;99.90;;;;;;5059654;28;20090;-74
2023/08/25 07:04:45;;;;;;;41.60;24.17;;;19.90;99.90;;;;;;5046701;28;20040;-77
2023/08/25 07:07:11;;;;;;;44.05;23.83;;;19.90;99.90;;;;;;5068354;28;20066;-74
2023/08/25 07:09:37;;;;;;;37.05;21.77;;;19.90;99.90;;;;;;5066772;28;20182;-74
2023/08/25 07:12:04;;;;;;;37.60;23.23;;;19.90;99.90;;;;;;5053690;28;20044;-75
2023/08/25 07:14:31;;;;;;;41.33;23.08;;;20.00;99.90;;;;;;5045746;28;20459;-74
2023/08/25 07:16:58;;;;;;;37.15;21.52;;;19.90;99.90;;;;;;5059776;28;20085;-75
2023/08/25 07:19:23;;;;;;;44.17;24.83;;;19.90;99.90;;;;;;5046777;28;20381;-79
2023/08/25 07:21:49;;;;;;;37.83;22.38;;;19.90;99.90;;;;;;5032717;28;20048;-76
2023/08/25 07:24:15;;;;;;;35.05;22.08;;;19.90;99.90;;;;;;5043495;28;20044;-76
2023/08/25 07:26:40;;;;;;;33.47;21.45;;;20.00;99.90;;;;;;5024177;28;20036;-79
2023/08/25 07:29:06;;;;;;;36.50;22.27;;;19.90;99.90;;;;;;5047547;28;20048;-76
2023/08/25 07:31:32;;;;;;;32.88;20.58;;;20.00;99.90;;;;;;5064261;28;20052;-80
2023/08/25 07:33:58;;;;;;;32.75;20.30;;;19.90;99.90;;;;;;5032884;28;20097;-76
2023/08/25 07:36:24;;;;;;;31.48;19.83;;;20.00;99.90;;;;;;5041009;28;20072;-76
2023/08/25 07:38:50;;;;;;;34.15;19.40;;;20.00;99.90;;;;;;5048424;28;20167;-75
2023/08/25 07:41:20;;;;;;;36.85;19.27;;;20.00;99.90;;;;;;5040604;28;20044;-73
2023/08/25 07:43:46;;;;;;;33.42;19.08;;;20.00;99.90;;;;;;5029728;28;20049;-73
2023/08/25 07:46:11;;;;;;;;;;;20.00;99.90;;;;;;5058104;28;20469;-73
2023/08/25 07:48:37;;;;;;;33.50;18.88;;;20.00;99.90;;;;;;5063873;28;19942;-73
2023/08/25 07:51:04;;;;;;;30.17;18.33;;;20.00;99.90;;;;;;5045814;28;20060;-73
2023/08/25 07:53:31;;;;;;;28.40;17.63;;;20.00;99.90;;;;;;5053214;28;20378;-73
2023/08/25 07:55:58;;;;;;;31.02;17.58;;;20.00;99.90;;;;;;5052853;28;20036;-74
2023/08/25 07:58:24;;;;;;;27.17;16.60;;;20.10;99.90;;;;;;5052158;28;20052;-73
2023/08/25 08:00:52;;;;;;;25.15;14.95;;;20.00;99.90;;;;;;5050495;28;20044;-73
2023/08/25 08:03:18;;;;;;;21.98;14.10;;;20.10;99.90;;;;;;5043729;28;20107;-73
2023/08/25 08:05:44;;;;;;;29.35;15.02;;;20.10;99.90;;;;;;5046091;28;21436;-73
2023/08/25 08:08:10;;;;;;;25.08;14.35;;;20.10;99.90;;;;;;5049894;28;20055;-73
2023/08/25 08:10:37;;;;;;;24.40;15.13;;;20.10;99.90;;;;;;5063151;28;20050;-73
2023/08/25 08:13:03;;;;;;;25.55;14.73;;;20.10;99.90;;;;;;5038275;28;20056;-73
2023/08/25 08:15:30;;;;;;;23.85;13.65;;;20.10;99.90;;;;;;5047340;28;20054;-73
2023/08/25 08:17:56;;;;;;;21.80;13.15;;;20.10;99.90;;;;;;5052934;28;20122;-74
2023/08/25 08:20:21;;;;;;;23.75;14.90;;;20.10;99.90;;;;;;5057777;28;20434;-73
2023/08/25 08:22:47;;;;;;;24.45;13.30;;;20.20;99.90;;;;;;5051279;28;20546;-73
2023/08/25 08:25:14;;;;;;;25.63;14.48;;;20.10;99.90;;;;;;5051682;28;20225;-73
2023/08/25 08:27:41;;;;;;;23.02;14.40;;;20.20;99.90;;;;;;5048242;28;20052;-73
2023/08/25 08:30:10;;;;;;;24.10;14.45;;;20.10;99.90;;;;;;5071097;28;20052;-73
2023/08/25 08:32:37;;;;;;;25.58;14.70;;;20.20;99.90;;;;;;5053271;28;20058;-73
2023/08/25 08:35:07;;;;;;;28.88;14.57;;;20.20;99.90;;;;;;5045529;28;20079;-73
2023/08/25 08:37:33;;;;;;;24.80;13.82;;;20.20;99.90;;;;;;5042030;28;20036;-73
2023/08/25 08:39:58;;;;;;;;;;;20.30;99.90;;;;;;5076203;28;20044;-73
2023/08/25 08:42:25;;;;;;;19.90;13.82;;;20.30;99.90;;;;;;5054945;28;20341;-73
2023/08/25 08:44:50;;;;;;;;;;;20.40;99.90;;;;;;5046798;28;20117;-73
2023/08/25 08:47:16;;;;;;;23.05;13.77;;;20.40;99.90;;;;;;5032790;28;20319;-73
2023/08/25 08:49:44;;;;;;;24.30;14.25;;;20.50;99.90;;;;;;5046985;28;20183;-73
2023/08/25 08:52:10;;;;;;;23.55;14.88;;;20.50;99.90;;;;;;5048172;28;20040;-73
2023/08/25 08:54:40;;;;;;;24.55;14.65;;;20.60;99.90;;;;;;5060042;28;20129;-73
2023/08/25 08:57:06;;;;;;;23.30;14.40;;;20.60;99.90;;;;;;5039323;28;20037;-73
2023/08/25 08:59:33;;;;;;;;;;;20.60;99.90;;;;;;5076142;28;20044;-73
2023/08/25 09:02:00;;;;;;;25.58;14.88;;;20.60;99.90;;;;;;5072206;28;19917;-73
2023/08/25 09:04:28;;;;;;;25.30;15.07;;;20.60;99.90;;;;;;5070828;28;20266;-73
2023/08/25 09:06:57;;;;;;;25.80;14.73;;;20.60;99.90;;;;;;5054882;28;20063;-73
2023/08/25 09:09:23;;;;;;;22.00;14.02;;;20.60;99.90;;;;;;5048335;28;20059;-73
2023/08/25 09:11:49;;;;;;;;;;;20.60;99.90;;;;;;5046063;28;20534;-72
2023/08/25 09:14:29;;;;;;;24.27;13.82;;;20.70;99.90;;;;;;5053912;28;19922;-72
2023/08/25 09:17:00;;;;;;;21.38;15.48;;;20.70;99.90;;;;;;5047106;28;20064;-72
2023/08/25 09:19:31;;;;;;;35.88;14.93;;;20.70;99.90;;;;;;5028366;28;20063;-73
2023/08/25 09:21:57;;;;;;;27.83;16.70;;;20.80;99.90;;;;;;5053617;28;20413;-72
2023/08/25 09:24:22;;;;;;;;;;;20.80;99.90;;;;;;5054468;28;20048;-74
2023/08/25 09:26:49;;;;;;;26.00;15.82;;;20.90;99.90;;;;;;5048935;28;19973;-73
2023/08/25 09:29:15;;;;;;;28.35;17.00;;;20.90;99.90;;;;;;5063093;28;20401;-73
2023/08/25 09:31:41;;;;;;;;;;;20.90;99.90;;;;;;5053392;28;20046;-72
2023/08/25 09:34:09;;;;;;;25.65;15.43;;;20.90;99.90;;;;;;5061641;28;20007;-73
2023/08/25 09:36:55;;;;;;;25.70;15.85;;;20.90;99.90;;;;;;5058692;28;20048;-73
2023/08/25 09:39:22;;;;;;;29.53;15.03;;;21.00;99.90;;;;;;5071030;28;20048;-73
2023/08/25 09:41:49;;;;;;;26.25;16.30;;;21.00;99.90;;;;;;5047991;28;20383;-73
2023/08/25 09:44:15;;;;;;;27.83;16.80;;;21.00;99.90;;;;;;5063041;28;20051;-73
2023/08/25 09:46:42;;;;;;;29.75;17.77;;;21.00;99.90;;;;;;5047557;28;20474;-72
2023/08/25 09:49:09;;;;;;;28.55;15.45;;;21.00;99.90;;;;;;5040504;28;20563;-72
2023/08/25 09:51:39;;;;;;;30.52;16.30;;;21.00;99.90;;;;;;5052460;28;20113;-72
2023/08/25 09:54:12;;;;;;;29.10;16.92;;;21.00;99.90;;;;;;5057962;28;20052;-72
2023/08/25 09:56:39;;;;;;;32.33;16.42;;;21.10;99.90;;;;;;5061250;28;20036;-72
2023/08/25 09:59:07;;;;;;;30.83;16.60;;;21.00;99.90;;;;;;5058008;28;20553;-73
2023/08/25 10:01:34;;;;;;;24.67;15.52;;;21.10;99.90;;;;;;5069449;28;20047;-72
2023/08/25 10:04:02;;;;;;;29.08;16.48;;;21.10;99.90;;;;;;5077384;28;20085;-72
2023/08/25 10:06:30;;;;;;;24.65;14.85;;;21.10;99.90;;;;;;5065724;28;20430;-72
2023/08/25 10:08:56;;;;;;;25.55;15.95;;;21.20;99.90;;;;;;5070350;28;20434;-72
2023/08/25 10:11:25;;;;;;;26.20;16.33;;;21.20;99.90;;;;;;5076742;28;20112;-73
2023/08/25 10:13:54;;;;;;;29.17;17.55;;;21.20;99.90;;;;;;5056271;28;20036;-72
2023/08/25 10:16:20;;;;;;;25.92;14.43;;;21.20;99.90;;;;;;5070790;28;20081;-72
2023/08/25 10:18:48;;;;;;;27.48;15.73;;;21.30;99.90;;;;;;5039759;28;20422;-74
2023/08/25 10:21:19;;;;;;;29.17;18.25;;;21.30;99.90;;;;;;5077089;28;20368;-73
2023/08/25 10:23:46;;;;;;;28.70;16.10;;;21.40;99.90;;;;;;5059246;28;20044;-72
2023/08/25 10:26:13;;;;;;;28.80;17.00;;;21.40;99.90;;;;;;5052911;28;20071;-72
2023/08/25 10:28:39;;;;;;;27.70;17.08;;;21.50;99.90;;;;;;5072661;28;20889;-72
2023/08/25 10:31:05;;;;;;;;;;;21.50;99.90;;;;;;5052461;28;20040;-72
2023/08/25 10:33:50;;;;;;;30.40;17.65;;;21.40;99.90;;;;;;5066416;28;19926;-73
2023/08/25 10:36:21;;;;;;;24.10;15.95;;;21.50;99.90;;;;;;5056319;28;20122;-72
2023/08/25 10:39:06;;;;;;;23.85;15.10;;;21.50;99.90;;;;;;5049050;28;20081;-72
2023/08/25 10:41:41;;;;;;;30.80;16.70;;;21.50;99.90;;;;;;5051792;28;20056;-72
2023/08/25 10:44:10;;;;;;;28.77;17.40;;;21.60;99.90;;;;;;5050981;28;20096;-73
2023/08/25 10:46:38;;;;;;;28.63;18.15;;;21.60;99.90;;;;;;5064858;28;20554;-72
2023/08/25 10:49:07;;;;;;;30.13;16.90;;;21.60;99.90;;;;;;5052556;28;20124;-73
2023/08/25 10:51:36;;;;;;;33.13;18.13;;;21.60;99.90;;;;;;5065664;28;20040;-72
2023/08/25 10:54:03;;;;;;;30.77;17.70;;;21.70;99.90;;;;;;5048077;28;20125;-72
2023/08/25 10:56:29;;;;;;;31.13;17.88;;;21.70;99.90;;;;;;5074008;28;20149;-72
2023/08/25 10:58:57;;;;;;;;;;;21.70;99.90;;;;;;5054320;28;20147;-73
2023/08/25 11:01:33;;;;;;;28.83;18.15;;;21.60;99.90;;;;;;5058520;28;19997;-72
2023/08/25 11:04:12;;;;;;;30.95;18.80;;;21.60;99.90;;;;;;5046431;28;20037;-73
2023/08/25 11:06:45;;;;;;;29.13;18.10;;;21.60;99.90;;;;;;5074934;28;20044;-73
2023/08/25 11:09:32;;;;;;;36.38;18.73;;;21.50;99.90;;;;;;5055630;28;20413;-73
2023/08/25 11:12:06;;;;;;;29.02;18.40;;;21.50;99.90;;;;;;5058405;28;20059;-72
2023/08/25 11:14:37;;;;;;;33.63;17.08;;;21.50;99.90;;;;;;5048416;28;20047;-72
2023/08/25 11:17:04;;;;;;;28.60;17.38;;;21.60;99.90;;;;;;5041109;28;20036;-72
2023/08/25 11:19:32;;;;;;;37.00;18.30;;;21.70;99.90;;;;;;5050885;28;20040;-73
2023/08/25 11:22:13;;;;;;;28.58;18.35;;;21.80;99.90;;;;;;5049240;28;20082;-73
2023/08/25 11:24:39;;;;;;;33.90;19.70;;;21.90;99.90;;;;;;5045240;28;20051;-73
2023/08/25 11:27:06;;;;;;;;;;;22.00;99.90;;;;;;5074833;28;20354;-73
2023/08/25 11:29:32;;;;;;;30.90;20.13;;;22.10;99.90;;;;;;5055869;28;20364;-73
2023/08/25 11:31:59;;;;;;;35.97;20.20;;;22.20;99.90;;;;;;5070216;28;20079;-73
2023/08/25 11:34:28;;;;;;;29.17;18.33;;;22.30;99.90;;;;;;5036316;28;20474;-73
2023/08/25 11:36:54;;;;;;;29.67;18.90;;;22.40;99.90;;;;;;5050888;28;20521;-73
2023/08/25 11:39:19;;;;;;;;;;;22.40;99.90;;;;;;5058931;28;20151;-73
2023/08/25 11:41:46;;;;;;;30.63;18.33;;;22.50;99.90;;;;;;5067352;28;19935;-73
2023/08/25 11:44:13;;;;;;;36.10;18.83;;;22.60;99.90;;;;;;5030986;28;20127;-73
2023/08/25 11:46:39;;;;;;;33.35;19.95;;;22.60;99.90;;;;;;5034263;28;20036;-71
2023/08/25 11:49:06;;;;;;;29.17;18.67;;;22.60;99.90;;;;;;5069553;28;20051;-70
2023/08/25 11:51:35;;;;;;;38.28;21.10;;;22.60;99.90;;;;;;5070809;28;20062;-71
2023/08/25 11:54:02;;;;;;;29.02;17.95;;;22.60;99.90;;;;;;5063028;28;20455;-70
2023/08/25 11:56:27;;;;;;;33.95;19.55;;;22.60;99.90;;;;;;5071061;28;20063;-70
2023/08/25 11:58:53;;;;;;;;;;;22.60;99.90;;;;;;5085325;28;20482;-70
2023/08/25 12:01:18;;;;;;;29.60;18.67;;;22.60;99.90;;;;;;5053643;28;19964;-70
2023/08/25 12:03:44;;;;;;;;;;;22.60;99.90;;;;;;5071314;28;20044;-70
2023/08/25 12:06:12;;;;;;;32.30;18.13;;;22.60;99.90;;;;;;5089255;28;20274;-69
2023/08/25 12:08:39;;;;;;;29.30;19.27;;;22.60;99.90;;;;;;5089404;28;20358;-70
2023/08/25 12:11:06;;;;;;;33.30;19.00;;;22.70;99.90;;;;;;5088710;28;20040;-70
2023/08/25 12:13:40;;;;;;;30.10;20.10;;;22.80;99.90;;;;;;5070745;28;20513;-70
2023/08/25 12:16:06;;;;;;;29.58;19.38;;;22.90;99.90;;;;;;5088520;28;20036;-70
2023/08/25 12:18:33;;;;;;;;;;;23.00;99.90;;;;;;5059499;28;20041;-70
2023/08/25 12:21:00;;;;;;;31.02;18.17;;;23.10;99.90;;;;;;5078607;28;19916;-70
2023/08/25 12:23:34;;;;;;;27.35;18.85;;;23.10;99.90;;;;;;5059287;28;20043;-70
2023/08/25 12:26:02;;;;;;;26.33;16.75;;;23.10;99.90;;;;;;5051218;28;20109;-70
2023/08/25 12:28:28;;;;;;;31.45;17.20;;;23.20;99.90;;;;;;5050368;28;20041;-70
2023/08/25 12:30:54;;;;;;;28.75;17.23;;;23.10;99.90;;;;;;5066592;28;20044;-70
2023/08/25 12:33:20;;;;;;;26.25;17.27;;;23.10;99.90;;;;;;5053326;28;20052;-70